Airfield :
LOGIN :

Register | Disclaimer

   EN    FR    IT 

 










Legend :    VFR   Marginal VFR   IFR   Intensive IFR   Very Intensive IFR
Visi :
Ceiling :
>= 8 km
>= 3000ft
5 to 8 km
1000 to 3000 ft
1500m to 5 km
500 to 1000 ft
800 to 1500m
200 to 500 ft
< 800m
< 200 ft
Symbols :   Thunderstorms  Fog  Heavy snow  Heavy precipitations  Wind > 20 kt
SIGMETs :     Misc.  Thunderstorms  Icing  Turbulence  Mountain Waves  Volcanic Ashes






- Airport Elevation : 219 ft
- IATA code : DNR


LFRD - Dinard

CURRENT METAR :
  • 121500Z AUTO VRB03KT 9999 -RA FEW037/// SCT047/// ///CB 21/20 Q1011 TEMPO VRB20G45KT 1500 TSRAGR BKN006 BKN060CB

EXPIRED METARs :
  • 121430Z AUTO 23003KT 9000 -RA ///CB 21/20 Q1012 TEMPO VRB20G45KT 1500 TSRAGR BKN006 BKN060CB
  • 121400Z AUTO 23007KT 190V270 9000 -RA FEW027/// SCT054/// BKN070/// ///CB 21/20 Q1013 TEMPO VRB20G45KT 1500 TSRAGR BKN006 BKN060CB
  • 121330Z AUTO 18018KT 6000 -RA ///CB 21/19 Q1014 TEMPO VRB20G45KT 1500 TSRAGR BKN006 BKN060CB
  • 121300Z AUTO 16015KT 9999 FEW027/// SCT068/// BKN082/// ///TCU 23/19 Q1013 TEMPO VRB20G45KT 1500 TSRAGR BKN006 BKN060CB
  • 121230Z AUTO 13006KT 9999 ///TCU 25/19 Q1012 TEMPO VRB20G45KT 1500 TSRAGR BKN006 BKN060CB

TAF AMD TAF LFRD
Valid from the 12 at 12:00 until the 13 at 12:00 UTC


121111Z 1212/1312 VRB05KT 9999 SCT060CB BKN100
TEMPO 1212/1218 4000 TSRA BKN060CB
PROB40
TEMPO 1213/1218 VRB20G45KT 1500 TSRAGR BKN006 BKN060CB
PROB30
TEMPO 1218/1224 4000 TSRA BKN050CB
BECMG 1221/1224 3000 BR BKN004
TEMPO 1300/1306 1500 BR
BECMG 1306/1308 9999 NSW SCT013
TEMPO 1310/1312 4000 SHRA SCT020CB BKN100
PROB30
TEMPO 1310/1312 3000 TSRA BKN012CB BKN080
ATIS : +33 2 99 16 81 50



MET'MAP, your aeronautical weather chart ! - Copyright ORBIFLY December 2007 - Disclaimer

ORBIFLY MET'MAP TEAM :

Programming & Development : Alexandra Zaïnal
Concept & original design : Baudouin d'Aumeries
Assistance for programming : Marc-Olivier Méhu
Technical & hardware support : Manuel Goepfert

Contact : metmap@orbifly.com




SOURCES & CREDITS :

   NOAA